Time;durP1;ratioP1;P1;durP2;ratioP2;P2;SDS_P1;SDS_P2;PMS_P1;PMS_P2;Temp;Humidity;BMP_temperature;BMP_pressure;BME280_temperature;BME280_humidity;BME280_pressure;Samples;Min_cycle;Max_cycle;Signal;HPM_P1;HPM_P2
2022/03/13 00:00:59;;;;;;;69.80;29.73;;;0.50;99.90;;;;;;4411741;32;20183;-70
2022/03/13 00:03:27;;;;;;;66.40;28.43;;;0.50;99.90;;;;;;4424668;32;20169;-69
2022/03/13 00:05:54;;;;;;;67.73;28.63;;;0.50;99.90;;;;;;4410660;32;20200;-69
2022/03/13 00:08:27;;;;;;;67.27;29.70;;;0.40;99.90;;;;;;4411235;32;20174;-69
2022/03/13 00:11:01;;;;;;;64.20;29.07;;;0.40;99.90;;;;;;4412228;32;20205;-69
2022/03/13 00:13:44;;;;;;;71.37;30.20;;;0.50;99.90;;;;;;4410423;32;20201;-69
2022/03/13 00:16:12;;;;;;;64.87;29.73;;;0.40;99.90;;;;;;4424294;32;20180;-69
2022/03/13 00:18:46;;;;;;;66.70;30.40;;;0.30;99.90;;;;;;4424878;32;20168;-70
2022/03/13 00:21:15;;;;;;;76.80;32.53;;;0.20;99.90;;;;;;4425631;32;20139;-71
2022/03/13 00:23:43;;;;;;;72.33;32.20;;;0.20;99.90;;;;;;4411304;32;20197;-70
2022/03/13 00:26:12;;;;;;;72.33;31.00;;;0.20;99.90;;;;;;4410689;32;20208;-69
2022/03/13 00:28:39;;;;;;;70.93;31.80;;;0.20;99.90;;;;;;4426202;32;20174;-69
2022/03/13 00:31:06;;;;;;;77.43;32.83;;;0.10;99.90;;;;;;4424567;32;20165;-69
2022/03/13 00:33:34;;;;;;;79.17;32.23;;;0.10;99.90;;;;;;4412148;32;20178;-69
2022/03/13 00:36:01;;;;;;;74.10;31.10;;;0.00;99.90;;;;;;4410356;32;20196;-69
2022/03/13 00:38:29;;;;;;;73.73;30.07;;;0.00;99.90;;;;;;4410586;32;20197;-68
2022/03/13 00:40:58;;;;;;;73.90;30.97;;;-0.10;99.90;;;;;;4410140;32;20174;-68
2022/03/13 00:43:27;;;;;;;88.27;35.23;;;-0.10;99.90;;;;;;4410170;32;20585;-68
2022/03/13 00:45:55;;;;;;;76.80;33.30;;;-0.10;99.90;;;;;;4410666;32;20592;-68
2022/03/13 00:48:25;;;;;;;70.77;31.67;;;-0.20;99.90;;;;;;4411241;32;20281;-68
2022/03/13 00:50:53;;;;;;;87.03;34.73;;;-0.20;99.90;;;;;;4411581;32;20218;-69
2022/03/13 00:53:20;;;;;;;77.33;35.57;;;-0.20;99.90;;;;;;4424381;32;20139;-68
2022/03/13 00:55:48;;;;;;;86.30;34.70;;;-0.30;99.90;;;;;;4410925;32;20211;-69
2022/03/13 00:58:15;;;;;;;83.87;35.43;;;-0.30;99.90;;;;;;4409738;32;20236;-68
2022/03/13 01:00:42;;;;;;;84.67;34.73;;;-0.30;99.90;;;;;;4410633;32;20190;-68
2022/03/13 01:03:35;;;;;;;80.87;34.17;;;-0.20;99.90;;;;;;4409932;32;20198;-68
2022/03/13 01:06:04;;;;;;;80.80;34.70;;;-0.20;99.90;;;;;;4410442;32;20222;-68
2022/03/13 01:08:31;;;;;;;78.33;34.77;;;-0.20;99.90;;;;;;4411025;32;20179;-68
2022/03/13 01:11:00;;;;;;;86.87;36.17;;;-0.20;99.90;;;;;;4424199;32;20135;-68
2022/03/13 01:13:28;;;;;;;86.43;36.30;;;-0.20;99.90;;;;;;4409917;32;20173;-69
2022/03/13 01:16:18;;;;;;;88.13;36.57;;;-0.20;99.90;;;;;;4410110;32;20174;-68
2022/03/13 01:18:50;;;;;;;95.77;36.77;;;-0.20;99.90;;;;;;4409813;32;20385;-68
2022/03/13 01:21:19;;;;;;;87.87;37.50;;;-0.10;99.90;;;;;;4410463;32;20227;-68
2022/03/13 01:24:02;;;;;;;93.33;37.60;;;-0.10;99.90;;;;;;4410051;32;20175;-68
2022/03/13 01:26:36;;;;;;;94.60;37.53;;;-0.10;99.90;;;;;;4411156;32;20179;-69
2022/03/13 01:29:07;;;;;;;84.87;36.87;;;-0.10;99.90;;;;;;4410620;32;20170;-68
2022/03/13 01:31:38;;;;;;;91.53;37.53;;;-0.20;99.90;;;;;;4424003;32;20157;-68
2022/03/13 01:34:09;;;;;;;95.47;38.27;;;-0.20;99.90;;;;;;4411614;32;20182;-68
2022/03/13 01:36:37;;;;;;;94.27;37.07;;;-0.20;99.90;;;;;;4426205;32;20135;-68
2022/03/13 01:39:06;;;;;;;93.00;38.27;;;-0.20;99.90;;;;;;4413462;32;20198;-68
2022/03/13 01:41:34;;;;;;;85.53;36.60;;;-0.20;99.90;;;;;;4412556;32;20185;-68
2022/03/13 01:44:02;;;;;;;97.07;38.67;;;-0.20;99.90;;;;;;4427152;32;20469;-68
2022/03/13 01:46:29;;;;;;;97.97;38.67;;;-0.30;99.90;;;;;;4426797;32;20155;-68
2022/03/13 01:49:02;;;;;;;91.90;37.03;;;-0.30;99.90;;;;;;4426893;32;20542;-68
2022/03/13 01:51:31;;;;;;;93.47;38.27;;;-0.30;99.90;;;;;;4401734;32;20174;-68
2022/03/13 01:54:03;;;;;;;89.60;39.40;;;-0.30;99.90;;;;;;4413915;32;20597;-68
2022/03/13 01:56:33;;;;;;;94.23;38.40;;;-0.30;99.90;;;;;;4427555;32;20371;-68
2022/03/13 01:59:00;;;;;;;97.30;38.50;;;-0.40;99.90;;;;;;4413657;32;20202;-68
2022/03/13 02:01:28;;;;;;;101.73;39.57;;;-0.30;99.90;;;;;;4413047;32;20255;-68
2022/03/13 02:03:57;;;;;;;95.13;38.90;;;-0.40;99.90;;;;;;4426918;32;20143;-69
2022/03/13 02:06:26;;;;;;;99.97;38.43;;;-0.40;99.90;;;;;;4412525;32;20209;-71
2022/03/13 02:08:54;;;;;;;91.37;39.63;;;-0.40;99.90;;;;;;4413931;32;20218;-72
2022/03/13 02:11:36;;;;;;;91.57;38.53;;;-0.50;99.90;;;;;;4413674;32;20194;-72
2022/03/13 02:14:05;;;;;;;88.70;37.50;;;-0.50;99.90;;;;;;4412027;32;20221;-71
2022/03/13 02:16:32;;;;;;;100.10;39.10;;;-0.50;99.90;;;;;;4413388;32;20193;-71
2022/03/13 02:19:00;;;;;;;96.27;37.00;;;-0.50;99.90;;;;;;4413937;32;20193;-71
2022/03/13 02:21:31;;;;;;;99.53;39.27;;;-0.50;99.90;;;;;;4413778;32;20204;-71
2022/03/13 02:24:00;;;;;;;97.03;39.27;;;-0.50;99.90;;;;;;4413650;32;20194;-71
2022/03/13 02:26:30;;;;;;;96.33;39.00;;;-0.50;99.90;;;;;;4413162;32;21460;-71
2022/03/13 02:28:57;;;;;;;97.97;39.70;;;-0.40;99.90;;;;;;4411720;32;20184;-71
2022/03/13 02:31:34;;;;;;;98.87;40.73;;;-0.50;99.90;;;;;;4412202;32;20175;-71
2022/03/13 02:34:01;;;;;;;95.17;39.77;;;-0.40;99.90;;;;;;4410894;32;20167;-71
2022/03/13 02:36:31;;;;;;;96.93;40.43;;;-0.40;99.90;;;;;;4409686;32;20190;-71
2022/03/13 02:38:59;;;;;;;76.07;32.97;;;-0.50;99.90;;;;;;4397573;32;20221;-71
2022/03/13 02:41:27;;;;;;;77.50;34.43;;;-0.50;99.90;;;;;;4410705;32;20226;-71
2022/03/13 02:43:55;;;;;;;86.20;35.17;;;-0.40;99.90;;;;;;4398110;32;20205;-71
2022/03/13 02:46:42;;;;;;;67.13;29.33;;;-0.40;99.90;;;;;;4397163;32;20193;-71
2022/03/13 02:49:09;;;;;;;72.87;31.90;;;-0.40;99.90;;;;;;4397579;32;20166;-71
2022/03/13 02:51:37;;;;;;;76.17;31.27;;;-0.40;99.90;;;;;;4411076;32;20151;-71
2022/03/13 02:54:04;;;;;;;69.23;29.60;;;-0.40;99.90;;;;;;4397996;32;20501;-71
2022/03/13 02:56:32;;;;;;;60.13;25.90;;;-0.30;99.90;;;;;;4397634;32;20178;-71
2022/03/13 02:59:00;;;;;;;73.43;30.10;;;-0.30;99.90;;;;;;4397418;32;20254;-71
2022/03/13 03:01:27;;;;;;;65.53;28.27;;;-0.20;99.90;;;;;;4396810;32;20239;-71
2022/03/13 03:04:00;;;;;;;63.80;26.80;;;-0.10;99.90;;;;;;4408809;32;20198;-71
2022/03/13 03:06:32;;;;;;;66.73;27.73;;;0.00;99.90;;;;;;4396598;32;20221;-71
2022/03/13 03:09:01;;;;;;;57.57;25.20;;;0.10;99.90;;;;;;4410111;32;20185;-71
2022/03/13 03:11:34;;;;;;;62.50;26.73;;;0.20;99.90;;;;;;4396586;32;20190;-71
2022/03/13 03:14:03;;;;;;;57.03;26.57;;;0.30;99.90;;;;;;4396983;32;20217;-71
2022/03/13 03:16:30;;;;;;;60.73;24.87;;;0.50;99.90;;;;;;4396340;32;20205;-71
2022/03/13 03:18:59;;;;;;;54.23;24.00;;;0.50;99.90;;;;;;4397061;32;20175;-71
2022/03/13 03:21:26;;;;;;;54.53;24.13;;;0.60;99.90;;;;;;4410897;32;20213;-71
2022/03/13 03:23:53;;;;;;;56.40;24.43;;;0.70;99.90;;;;;;4397269;32;20234;-71
2022/03/13 03:26:21;;;;;;;59.07;25.47;;;0.70;99.90;;;;;;4396888;32;20178;-71
2022/03/13 03:28:48;;;;;;;72.73;30.47;;;0.70;99.90;;;;;;4409495;32;20173;-71
2022/03/13 03:31:16;;;;;;;67.10;29.13;;;0.70;99.90;;;;;;4410214;32;20226;-72
2022/03/13 03:33:43;;;;;;;63.03;25.57;;;0.70;99.90;;;;;;4396052;32;20167;-71
2022/03/13 03:36:15;;;;;;;61.13;26.67;;;0.70;99.90;;;;;;4409992;32;20206;-71
2022/03/13 03:38:42;;;;;;;59.67;25.30;;;0.70;99.90;;;;;;4396713;32;20171;-71
2022/03/13 03:41:10;;;;;;;52.87;24.97;;;0.80;99.90;;;;;;4395952;32;20206;-71
2022/03/13 03:43:38;;;;;;;59.87;24.23;;;0.80;99.90;;;;;;4397238;32;20242;-71
2022/03/13 03:46:05;;;;;;;60.43;25.10;;;0.80;99.90;;;;;;4396381;32;20242;-71
2022/03/13 03:48:43;;;;;;;55.33;24.67;;;0.90;99.90;;;;;;4409000;32;20238;-71
2022/03/13 03:51:13;;;;;;;51.83;23.77;;;0.90;99.90;;;;;;4396051;32;20202;-72
2022/03/13 03:53:40;;;;;;;58.23;24.67;;;0.90;99.90;;;;;;4395634;32;20174;-71
2022/03/13 03:56:07;;;;;;;53.50;24.33;;;0.90;99.90;;;;;;4409619;32;20411;-71
2022/03/13 03:58:34;;;;;;;54.43;24.73;;;0.90;99.90;;;;;;4409944;32;20148;-71
2022/03/13 04:01:02;;;;;;;56.30;24.17;;;0.90;99.90;;;;;;4395889;32;20172;-71
2022/03/13 04:03:29;;;;;;;59.07;24.03;;;1.00;99.90;;;;;;4395688;32;20167;-71
2022/03/13 04:05:57;;;;;;;53.13;23.87;;;1.00;99.90;;;;;;4397133;32;20420;-71
2022/03/13 04:08:24;;;;;;;55.20;24.03;;;1.00;99.90;;;;;;4396241;32;20184;-71
2022/03/13 04:10:52;;;;;;;53.83;22.77;;;1.00;99.90;;;;;;4396854;32;20594;-71
2022/03/13 04:13:19;;;;;;;53.93;23.73;;;1.00;99.90;;;;;;4407669;32;20234;-71
2022/03/13 04:15:46;;;;;;;51.20;23.33;;;1.00;99.90;;;;;;4396161;32;20183;-71
2022/03/13 04:18:15;;;;;;;50.53;22.30;;;1.00;99.90;;;;;;4396185;32;20168;-71
2022/03/13 04:20:43;;;;;;;56.07;23.70;;;1.10;99.90;;;;;;4395952;32;20193;-71
2022/03/13 04:23:11;;;;;;;47.67;22.37;;;1.10;99.90;;;;;;4409915;32;20175;-71
2022/03/13 04:25:38;;;;;;;55.27;23.67;;;1.10;99.90;;;;;;4395379;32;20186;-71
2022/03/13 04:28:10;;;;;;;55.87;23.73;;;1.10;99.90;;;;;;4410011;32;20140;-71
2022/03/13 04:30:39;;;;;;;54.50;24.10;;;1.20;99.90;;;;;;4410760;32;20139;-71
2022/03/13 04:33:07;;;;;;;48.87;22.23;;;1.10;99.90;;;;;;4395695;32;20217;-71
2022/03/13 04:35:35;;;;;;;53.70;24.40;;;1.20;99.90;;;;;;4409229;32;20163;-70
2022/03/13 04:38:03;;;;;;;59.67;25.73;;;1.20;99.90;;;;;;4396094;32;20166;-71
2022/03/13 04:40:30;;;;;;;58.23;24.20;;;1.10;99.90;;;;;;4407945;32;20197;-71
2022/03/13 04:42:58;;;;;;;56.63;24.60;;;1.10;99.90;;;;;;4395038;32;20179;-71
2022/03/13 04:45:35;;;;;;;57.43;25.03;;;1.00;99.90;;;;;;4395674;32;20240;-71
2022/03/13 04:48:03;;;;;;;55.40;25.17;;;1.00;99.90;;;;;;4395164;32;20179;-70
2022/03/13 04:50:30;;;;;;;57.13;24.80;;;1.00;99.90;;;;;;4409222;32;20155;-71
2022/03/13 04:52:58;;;;;;;61.87;26.17;;;0.90;99.90;;;;;;4395260;32;20171;-71
2022/03/13 04:55:26;;;;;;;61.37;25.20;;;0.90;99.90;;;;;;4408329;32;20186;-71
2022/03/13 04:57:53;;;;;;;61.80;26.73;;;0.80;99.90;;;;;;4408765;32;20254;-71
2022/03/13 05:00:23;;;;;;;58.53;26.07;;;0.80;99.90;;;;;;4409291;32;20224;-71
2022/03/13 05:02:51;;;;;;;56.47;26.80;;;0.70;99.90;;;;;;4395526;32;20182;-71
2022/03/13 05:05:19;;;;;;;60.90;26.67;;;0.60;99.90;;;;;;4396615;32;20193;-71
2022/03/13 05:07:46;;;;;;;61.00;25.30;;;0.60;99.90;;;;;;4396017;32;20171;-71
2022/03/13 05:10:15;;;;;;;59.97;25.93;;;0.60;99.90;;;;;;4395729;32;20167;-71
2022/03/13 05:12:43;;;;;;;62.33;27.10;;;0.60;99.90;;;;;;4395764;32;20171;-71
2022/03/13 05:15:11;;;;;;;65.40;27.33;;;0.60;99.90;;;;;;4408540;32;20253;-71
2022/03/13 05:17:38;;;;;;;62.57;27.57;;;0.50;99.90;;;;;;4409233;32;20179;-71
2022/03/13 05:20:06;;;;;;;63.40;27.37;;;0.50;99.90;;;;;;4408574;32;20220;-71
2022/03/13 05:22:34;;;;;;;65.70;28.20;;;0.50;99.90;;;;;;4394418;32;20240;-71
2022/03/13 05:25:01;;;;;;;62.63;27.70;;;0.50;99.90;;;;;;4408794;32;20238;-71
2022/03/13 05:27:28;;;;;;;65.90;28.17;;;0.50;99.90;;;;;;4409567;32;20231;-71
2022/03/13 05:29:56;;;;;;;65.23;28.93;;;0.50;99.90;;;;;;4408915;32;20197;-71
2022/03/13 05:32:23;;;;;;;68.63;29.73;;;0.50;99.90;;;;;;4395128;32;20264;-71
2022/03/13 05:34:51;;;;;;;66.00;29.33;;;0.50;99.90;;;;;;4395504;32;20224;-70
2022/03/13 05:37:19;;;;;;;70.30;29.57;;;0.50;99.90;;;;;;4408799;32;20144;-71
2022/03/13 05:39:46;;;;;;;70.60;30.93;;;0.60;99.90;;;;;;4394603;32;20267;-71
2022/03/13 05:42:21;;;;;;;68.17;30.83;;;0.60;99.90;;;;;;4394660;32;20205;-71
2022/03/13 05:44:49;;;;;;;76.23;31.73;;;0.60;99.90;;;;;;4395069;32;20213;-71
2022/03/13 05:47:18;;;;;;;72.43;31.70;;;0.60;99.90;;;;;;4394260;32;20179;-71
2022/03/13 05:49:46;;;;;;;80.73;33.20;;;0.60;99.90;;;;;;4394531;32;20179;-71
2022/03/13 05:52:16;;;;;;;78.93;33.87;;;0.60;99.90;;;;;;4394965;32;20226;-71
2022/03/13 05:54:44;;;;;;;80.73;34.27;;;0.60;99.90;;;;;;4395233;32;20455;-71
2022/03/13 05:57:11;;;;;;;79.50;34.80;;;0.60;99.90;;;;;;4409186;32;20175;-71
2022/03/13 05:59:39;;;;;;;80.47;34.30;;;0.60;99.90;;;;;;4395142;32;20209;-71
2022/03/13 06:02:08;;;;;;;78.40;33.73;;;0.60;99.90;;;;;;4395381;32;20212;-71
2022/03/13 06:04:36;;;;;;;84.33;35.57;;;0.70;99.90;;;;;;4395651;32;20250;-72
2022/03/13 06:07:05;;;;;;;81.60;35.57;;;0.80;99.90;;;;;;4394960;32;20167;-71
2022/03/13 06:09:32;;;;;;;84.53;35.93;;;0.80;99.90;;;;;;4395288;32;20197;-71
2022/03/13 06:12:00;;;;;;;77.93;36.03;;;0.90;99.90;;;;;;4394601;32;20213;-71
2022/03/13 06:14:33;;;;;;;78.13;33.83;;;1.00;99.90;;;;;;4394517;32;20178;-71
2022/03/13 06:17:00;;;;;;;76.17;34.10;;;1.20;99.90;;;;;;4393880;32;20216;-71
2022/03/13 06:19:31;;;;;;;79.63;33.13;;;1.40;99.90;;;;;;4408348;32;20136;-71
2022/03/13 06:21:58;;;;;;;76.33;32.93;;;1.40;99.90;;;;;;4394586;32;20248;-71
2022/03/13 06:24:26;;;;;;;76.27;31.27;;;1.50;99.90;;;;;;4397075;32;20228;-71
2022/03/13 06:26:56;;;;;;;73.10;31.47;;;1.50;99.90;;;;;;4397419;32;20174;-71
2022/03/13 06:29:23;;;;;;;68.37;30.83;;;1.50;99.90;;;;;;4396598;32;20197;-70
2022/03/13 06:31:54;;;;;;;71.80;31.10;;;1.60;99.90;;;;;;4396766;32;20195;-71
2022/03/13 06:34:22;;;;;;;71.13;31.43;;;1.70;99.90;;;;;;4397568;32;20175;-71
2022/03/13 06:36:52;;;;;;;71.03;31.30;;;1.70;99.90;;;;;;4396888;32;20185;-71
2022/03/13 06:39:21;;;;;;;69.73;32.10;;;1.80;99.90;;;;;;4396750;32;20176;-71
2022/03/13 06:41:51;;;;;;;77.50;33.43;;;1.90;99.90;;;;;;4410931;32;20159;-71
2022/03/13 06:44:18;;;;;;;73.43;32.57;;;2.00;99.70;;;;;;4410677;32;20139;-71
2022/03/13 06:46:46;;;;;;;75.37;33.50;;;2.10;99.40;;;;;;4396907;32;20195;-71
2022/03/13 06:49:16;;;;;;;78.53;32.83;;;2.10;99.10;;;;;;4396060;32;20171;-71
2022/03/13 06:51:45;;;;;;;72.73;32.17;;;2.10;98.50;;;;;;4397578;32;20221;-71
2022/03/13 06:54:12;;;;;;;73.63;32.00;;;2.10;97.30;;;;;;4396425;32;20178;-71
2022/03/13 06:56:40;;;;;;;73.27;31.97;;;2.10;96.60;;;;;;4396235;32;20207;-71
2022/03/13 06:59:11;;;;;;;68.43;30.60;;;2.00;96.60;;;;;;4411457;32;20170;-71
2022/03/13 07:01:38;;;;;;;67.03;31.60;;;2.00;95.20;;;;;;4396708;32;20206;-71
2022/03/13 07:04:06;;;;;;;70.03;30.77;;;2.00;96.00;;;;;;4411604;32;20181;-71
2022/03/13 07:06:35;;;;;;;68.60;31.47;;;2.10;95.20;;;;;;4396592;32;20210;-71
2022/03/13 07:09:03;;;;;;;74.57;31.03;;;2.20;94.80;;;;;;4396394;32;20167;-71
2022/03/13 07:11:34;;;;;;;64.50;30.80;;;2.20;94.50;;;;;;4396088;32;20478;-71
2022/03/13 07:14:08;;;;;;;64.67;29.87;;;2.30;93.60;;;;;;4395814;32;20675;-71
2022/03/13 07:16:37;;;;;;;67.07;30.47;;;2.30;93.30;;;;;;4410333;32;20139;-71
2022/03/13 07:19:05;;;;;;;59.90;28.80;;;2.40;92.70;;;;;;4395814;32;20167;-71
2022/03/13 07:21:33;;;;;;;68.40;29.37;;;2.50;92.30;;;;;;4396470;32;20239;-71
2022/03/13 07:24:04;;;;;;;65.40;29.80;;;2.60;92.00;;;;;;4395513;32;20175;-71
2022/03/13 07:26:32;;;;;;;71.57;31.83;;;2.70;92.00;;;;;;4395747;32;20176;-71
2022/03/13 07:29:03;;;;;;;71.90;32.30;;;2.70;92.40;;;;;;4397325;32;20243;-71
2022/03/13 07:31:31;;;;;;;62.87;30.27;;;2.80;92.50;;;;;;4395729;32;20179;-71
2022/03/13 07:33:59;;;;;;;62.70;30.97;;;2.80;92.60;;;;;;4409419;32;20507;-71
2022/03/13 07:36:27;;;;;;;63.00;28.97;;;2.90;92.40;;;;;;4395470;32;20195;-71
2022/03/13 07:38:55;;;;;;;60.90;28.83;;;3.00;91.60;;;;;;4409721;32;20166;-71
2022/03/13 07:41:22;;;;;;;63.67;29.83;;;3.10;91.40;;;;;;4396658;32;20175;-71
2022/03/13 07:43:50;;;;;;;64.07;30.27;;;3.10;90.70;;;;;;4410242;32;20135;-71
2022/03/13 07:46:18;;;;;;;68.00;30.93;;;3.20;90.90;;;;;;4410739;32;20187;-71
2022/03/13 07:48:46;;;;;;;73.80;32.13;;;3.20;91.10;;;;;;4396071;32;20170;-72
2022/03/13 07:51:15;;;;;;;66.33;31.80;;;3.30;91.20;;;;;;4410042;32;20571;-71
2022/03/13 07:53:43;;;;;;;65.27;31.30;;;3.40;91.20;;;;;;4396310;32;20599;-72
2022/03/13 07:56:11;;;;;;;66.67;31.97;;;3.50;91.50;;;;;;4395277;32;20179;-71
2022/03/13 07:58:38;;;;;;;63.97;31.77;;;3.70;90.60;;;;;;4396073;32;20185;-71
2022/03/13 08:01:08;;;;;;;64.67;31.53;;;3.80;90.40;;;;;;4396590;32;20179;-71
2022/03/13 08:03:55;;;;;;;67.80;30.13;;;3.80;89.40;;;;;;4409956;32;20450;-71
2022/03/13 08:06:23;;;;;;;65.47;29.40;;;3.90;90.10;;;;;;4410460;32;20143;-71
2022/03/13 08:08:51;;;;;;;61.20;29.60;;;4.00;89.70;;;;;;4396674;32;20224;-71
2022/03/13 08:11:19;;;;;;;58.40;28.97;;;4.20;89.20;;;;;;4394826;32;20531;-71
2022/03/13 08:13:49;;;;;;;66.10;31.03;;;4.30;87.00;;;;;;4395107;32;20179;-71
2022/03/13 08:16:18;;;;;;;57.37;28.97;;;4.40;86.70;;;;;;4395416;32;20216;-71
2022/03/13 08:18:52;;;;;;;63.60;29.57;;;4.40;86.10;;;;;;4395305;32;20178;-71
2022/03/13 08:21:31;;;;;;;53.60;27.40;;;4.60;85.60;;;;;;4395635;32;20175;-71
2022/03/13 08:24:54;;;;;;;59.17;26.90;;;5.10;83.60;;;;;;4361477;32;20180;-71
2022/03/13 08:28:09;;;;;;;52.17;26.60;;;6.00;79.20;;;;;;4320588;33;20198;-70
2022/03/13 08:30:42;;;;;;;59.93;27.63;;;7.20;71.40;;;;;;4361461;32;20144;-69
2022/03/13 08:33:43;;;;;;;56.60;26.20;;;7.90;68.20;;;;;;4349689;33;20244;-69
2022/03/13 08:36:14;;;;;;;46.43;24.47;;;8.50;64.50;;;;;;4361719;33;20403;-68
2022/03/13 08:38:56;;;;;;;53.10;25.53;;;8.80;61.00;;;;;;4362725;32;20155;-68
2022/03/13 08:41:28;;;;;;;52.13;26.00;;;9.10;59.40;;;;;;4348761;33;20167;-69
2022/03/13 08:43:56;;;;;;;52.70;25.23;;;9.40;58.40;;;;;;4361533;32;20152;-69
2022/03/13 08:46:23;;;;;;;50.50;24.87;;;9.80;57.90;;;;;;4348751;33;20421;-68
2022/03/13 08:48:51;;;;;;;47.60;24.47;;;10.20;56.70;;;;;;4353448;32;20508;-69
2022/03/13 08:51:23;;;;;;;45.80;23.37;;;10.70;56.50;;;;;;4378091;32;20501;-69
2022/03/13 08:53:51;;;;;;;49.53;25.13;;;11.10;54.40;;;;;;4363491;32;20438;-69
2022/03/13 08:56:18;;;;;;;53.13;25.40;;;11.30;53.30;;;;;;4376140;32;20229;-70
2022/03/13 08:58:48;;;;;;;47.87;25.23;;;11.40;52.50;;;;;;4363341;32;20583;-69
2022/03/13 09:01:15;;;;;;;55.50;27.03;;;11.70;52.10;;;;;;4405989;32;20159;-69
2022/03/13 09:03:46;;;;;;;54.87;27.00;;;11.90;51.00;;;;;;4411249;32;20455;-69
2022/03/13 09:06:14;;;;;;;50.00;25.90;;;12.20;50.30;;;;;;4410905;32;20443;-69
2022/03/13 09:08:41;;;;;;;48.57;25.47;;;12.30;49.70;;;;;;4409934;32;20193;-68
2022/03/13 09:11:11;;;;;;;46.57;24.20;;;12.40;49.00;;;;;;4409940;32;20178;-68
2022/03/13 09:13:38;;;;;;;44.80;24.03;;;12.70;48.90;;;;;;4410175;32;20375;-69
2022/03/13 09:16:06;;;;;;;43.43;23.20;;;12.90;48.30;;;;;;4410094;32;20405;-69
2022/03/13 09:18:36;;;;;;;45.83;23.33;;;13.10;47.90;;;;;;4409623;32;20198;-69
2022/03/13 09:21:03;;;;;;;43.03;23.40;;;13.30;47.60;;;;;;4410373;32;20434;-70
2022/03/13 09:23:31;;;;;;;47.93;24.37;;;13.40;47.10;;;;;;4409916;32;20413;-70
2022/03/13 09:26:00;;;;;;;45.80;24.37;;;13.60;46.50;;;;;;4410220;32;20501;-70
2022/03/13 09:28:29;;;;;;;45.30;25.13;;;13.80;46.10;;;;;;4411424;32;20268;-70
2022/03/13 09:30:57;;;;;;;45.33;24.13;;;14.10;46.50;;;;;;4410913;32;20479;-70
2022/03/13 09:33:27;;;;;;;46.33;24.50;;;14.20;45.40;;;;;;4410039;32;20525;-70
2022/03/13 09:35:54;;;;;;;43.80;22.57;;;14.30;44.60;;;;;;4410204;32;20434;-70
2022/03/13 09:38:22;;;;;;;39.20;21.00;;;14.20;44.50;;;;;;4409562;32;20429;-70
2022/03/13 09:40:49;;;;;;;33.50;19.10;;;14.40;45.20;;;;;;4409909;32;20191;-70
2022/03/13 09:43:19;;;;;;;29.83;18.27;;;14.50;44.10;;;;;;4409619;32;20378;-69
2022/03/13 09:45:47;;;;;;;32.33;18.03;;;14.80;44.00;;;;;;4410225;32;20385;-69
2022/03/13 09:48:18;;;;;;;34.17;18.53;;;14.90;43.90;;;;;;4409719;32;20435;-68
2022/03/13 09:50:46;;;;;;;34.03;18.70;;;15.10;43.30;;;;;;4423806;32;20365;-68
2022/03/13 09:53:14;;;;;;;32.43;18.10;;;15.50;43.30;;;;;;4423968;32;20465;-68
2022/03/13 09:55:41;;;;;;;32.40;18.00;;;15.60;42.60;;;;;;4409205;32;20457;-69
2022/03/13 09:58:12;;;;;;;29.70;16.50;;;15.70;42.50;;;;;;4425567;32;20143;-68
2022/03/13 10:00:44;;;;;;;30.77;16.27;;;15.90;42.30;;;;;;4409595;32;20171;-69
2022/03/13 10:03:14;;;;;;;27.57;16.00;;;16.10;41.70;;;;;;4396855;32;20163;-69
2022/03/13 10:05:50;;;;;;;27.93;15.90;;;16.20;41.70;;;;;;4409488;32;20273;-70
2022/03/13 10:08:19;;;;;;;27.47;15.47;;;16.10;42.10;;;;;;4397339;32;20210;-70
2022/03/13 10:10:48;;;;;;;28.63;15.47;;;16.10;42.30;;;;;;4410836;32;20188;-70
2022/03/13 10:13:37;;;;;;;27.93;15.70;;;16.20;42.10;;;;;;4411379;32;20163;-70
2022/03/13 10:16:06;;;;;;;25.13;15.03;;;16.40;41.60;;;;;;4398069;32;20171;-69
2022/03/13 10:18:34;;;;;;;27.40;16.17;;;16.40;41.50;;;;;;4397984;32;20416;-70
2022/03/13 10:21:11;;;;;;;30.30;15.93;;;17.00;41.40;;;;;;4398567;32;20407;-69
2022/03/13 10:23:42;;;;;;;26.87;15.23;;;17.10;40.70;;;;;;4411436;32;20171;-69
2022/03/13 10:26:09;;;;;;;25.37;15.10;;;17.60;40.40;;;;;;4410775;32;20520;-70
2022/03/13 10:28:39;;;;;;;23.07;13.80;;;17.60;39.60;;;;;;4396873;32;20183;-70
2022/03/13 10:31:18;;;;;;;22.57;12.97;;;17.70;39.90;;;;;;4396534;32;20431;-69
2022/03/13 10:33:58;;;;;;;20.33;12.70;;;17.90;40.00;;;;;;4396658;32;20239;-70
2022/03/13 10:36:34;;;;;;;22.23;13.47;;;18.10;39.40;;;;;;4397115;32;20170;-69
2022/03/13 10:39:09;;;;;;;25.47;13.90;;;18.40;38.90;;;;;;4394990;32;20171;-69
2022/03/13 10:41:44;;;;;;;24.37;13.97;;;18.70;38.70;;;;;;4397329;32;20497;-70
2022/03/13 10:44:22;;;;;;;18.40;11.70;;;19.00;38.10;;;;;;4409270;32;20520;-69
2022/03/13 10:46:58;;;;;;;20.93;12.27;;;19.10;38.10;;;;;;4397194;32;20408;-69
2022/03/13 10:49:42;;;;;;;22.57;12.80;;;19.10;37.60;;;;;;4396903;32;20175;-70
2022/03/13 10:52:29;;;;;;;20.10;12.70;;;19.20;37.50;;;;;;4420960;32;20220;-70
2022/03/13 10:55:20;;;;;;;19.50;12.13;;;19.30;37.60;;;;;;4421051;32;20555;-70
2022/03/13 10:57:53;;;;;;;22.10;11.87;;;19.60;37.20;;;;;;4410478;32;20525;-70
2022/03/13 11:00:22;;;;;;;19.13;11.80;;;19.70;36.90;;;;;;4420472;32;20486;-69
2022/03/13 11:02:50;;;;;;;22.63;12.80;;;19.90;36.10;;;;;;4411089;32;20220;-70
2022/03/13 11:05:17;;;;;;;20.63;12.40;;;19.70;36.90;;;;;;4411093;32;20384;-70
2022/03/13 11:07:50;;;;;;;17.03;10.63;;;19.80;36.50;;;;;;4410952;32;20562;-70
2022/03/13 11:10:17;;;;;;;20.93;11.20;;;19.60;36.40;;;;;;4398350;32;20467;-70
2022/03/13 11:12:48;;;;;;;17.70;11.40;;;19.90;36.70;;;;;;4396112;32;20427;-70
2022/03/13 11:15:16;;;;;;;19.70;11.67;;;19.80;36.40;;;;;;4409956;32;20473;-69
2022/03/13 11:17:48;;;;;;;16.83;10.77;;;19.70;36.20;;;;;;4396134;32;20601;-70
2022/03/13 11:20:18;;;;;;;18.47;11.73;;;19.70;36.50;;;;;;4409979;32;20178;-70
2022/03/13 11:22:45;;;;;;;19.80;11.20;;;19.50;35.80;;;;;;4396285;32;20171;-69
2022/03/13 11:25:13;;;;;;;18.17;11.57;;;19.70;36.50;;;;;;4395752;32;20433;-70
2022/03/13 11:27:42;;;;;;;18.97;11.07;;;20.00;36.30;;;;;;4395611;32;20524;-69
2022/03/13 11:30:14;;;;;;;17.87;11.20;;;20.30;35.60;;;;;;4409903;32;20569;-70
2022/03/13 11:32:47;;;;;;;17.67;11.53;;;20.70;35.30;;;;;;4395771;32;20213;-69
2022/03/13 11:35:18;;;;;;;22.10;12.13;;;20.80;34.60;;;;;;4397003;32;20198;-69
2022/03/13 11:37:46;;;;;;;21.53;11.93;;;20.80;34.60;;;;;;4396384;32;20171;-69
2022/03/13 11:40:18;;;;;;;20.33;11.83;;;20.80;34.40;;;;;;4395701;32;20236;-70
2022/03/13 11:42:51;;;;;;;20.40;12.90;;;21.20;34.10;;;;;;4409576;32;20213;-69
2022/03/13 11:45:30;;;;;;;19.70;12.77;;;21.50;33.60;;;;;;4395294;32;20484;-69
2022/03/13 11:48:19;;;;;;;23.47;13.67;;;22.00;33.40;;;;;;4409717;32;20183;-70
2022/03/13 11:50:58;;;;;;;22.23;13.62;;;22.90;32.20;;;;;;4395338;32;20441;-69
2022/03/13 11:53:28;;;;;;;19.37;13.82;;;23.60;30.70;;;;;;4409430;32;20387;-69
2022/03/13 11:56:29;;;;;;;18.33;12.37;;;24.10;30.30;;;;;;4395653;32;20241;-69
2022/03/13 11:59:13;;;;;;;19.27;12.70;;;23.90;29.90;;;;;;4409695;32;20460;-69
2022/03/13 12:01:41;;;;;;;22.48;13.75;;;24.20;30.00;;;;;;4395798;32;20187;-69
2022/03/13 12:04:09;;;;;;;21.40;13.98;;;24.50;29.80;;;;;;4396117;32;20531;-69
2022/03/13 12:06:44;;;;;;;21.10;13.18;;;24.40;29.40;;;;;;4394900;32;20567;-69
2022/03/13 12:09:17;;;;;;;19.15;13.07;;;25.00;29.30;;;;;;4395481;32;20404;-69
2022/03/13 12:11:58;;;;;;;18.35;12.73;;;25.40;29.00;;;;;;4395706;32;20191;-69
2022/03/13 12:14:49;;;;;;;18.25;12.43;;;25.70;28.70;;;;;;4395511;32;20555;-69
2022/03/13 12:17:16;;;;;;;20.20;12.77;;;26.20;28.20;;;;;;4395333;32;20533;-70
2022/03/13 12:19:47;;;;;;;19.83;13.15;;;26.80;27.90;;;;;;4396988;32;20479;-70
2022/03/13 12:22:15;;;;;;;20.00;13.20;;;26.70;27.70;;;;;;4394886;32;20602;-71
2022/03/13 12:24:50;;;;;;;18.87;12.77;;;26.80;27.40;;;;;;4395488;32;20380;-70
2022/03/13 12:27:18;;;;;;;21.20;13.68;;;26.70;27.10;;;;;;4408848;32;20493;-71
2022/03/13 12:29:50;;;;;;;21.10;13.20;;;26.20;28.10;;;;;;4394827;32;20560;-70
2022/03/13 12:32:18;;;;;;;21.73;13.50;;;26.00;27.90;;;;;;4394511;32;20538;-71
2022/03/13 12:34:45;;;;;;;21.42;14.35;;;26.30;27.70;;;;;;4409170;32;20600;-70
2022/03/13 12:37:12;;;;;;;20.73;13.52;;;26.20;27.70;;;;;;4395103;32;20521;-71
2022/03/13 12:39:51;;;;;;;20.65;14.05;;;25.80;27.90;;;;;;4394898;32;20194;-71
2022/03/13 12:42:24;;;;;;;20.70;13.32;;;25.90;27.50;;;;;;4394902;32;20209;-70
2022/03/13 12:45:12;;;;;;;20.80;13.38;;;25.90;27.60;;;;;;4409149;32;20201;-71
2022/03/13 12:47:47;;;;;;;20.95;13.77;;;25.30;27.80;;;;;;4422110;32;20207;-71